Time;durP1;ratioP1;P1;durP2;ratioP2;P2;SDS_P1;SDS_P2;PMS_P1;PMS_P2;Temp;Humidity;BMP_temperature;BMP_pressure;BME280_temperature;BME280_humidity;BME280_pressure;Samples;Min_cycle;Max_cycle;Signal;HPM_P1;HPM_P2
2022/08/04 00:01:22;;;;;;;3.72;2.75;;;;;;;;;;5053951;28;20319;-90
2022/08/04 00:03:53;;;;;;;3.42;3.13;;;;;;;;;;5072899;22;20239;-87
2022/08/04 00:06:45;;;;;;;;;;;;;;;;;;;;;
2022/08/04 00:09:17;;;;;;;3.30;3.00;;;;;;;;;;5051144;28;20207;-88
2022/08/04 00:12:02;;;;;;;3.67;3.28;;;;;;;;;;5053761;28;20201;-87
2022/08/04 00:14:38;;;;;;;4.45;3.17;;;;;;;;;;5071232;28;20307;-87
2022/08/04 00:17:09;;;;;;;3.95;3.65;;;;;;;;;;5055818;28;20699;-87
2022/08/04 00:19:41;;;;;;;3.75;3.33;;;;;;;;;;5071932;28;20208;-87
2022/08/04 00:22:10;;;;;;;4.53;3.30;;;;;;;;;;5062316;28;20205;-87
2022/08/04 00:24:44;;;;;;;3.97;3.25;;;;;;;;;;5060704;28;20233;-88
2022/08/04 00:27:12;;;;;;;3.38;3.08;;;;;;;;;;5058195;28;20225;-87
2022/08/04 00:29:40;;;;;;;3.92;3.53;;;;;;;;;;5060329;28;20274;-87
2022/08/04 00:32:11;;;;;;;3.70;3.33;;;;;;;;;;5050865;28;20283;-87
2022/08/04 00:34:39;;;;;;;3.42;3.03;;;;;;;;;;5053140;28;20220;-87
2022/08/04 00:37:07;;;;;;;3.90;3.50;;;;;;;;;;5053666;28;20292;-87
2022/08/04 00:39:34;;;;;;;4.10;3.55;;;;;;;;;;5059905;28;20200;-87
2022/08/04 00:42:19;;;;;;;4.40;3.67;;;;;;;;;;5059850;28;20238;-87
2022/08/04 00:44:54;;;;;;;5.50;3.20;;;;;;;;;;5058834;28;20322;-87
2022/08/04 00:47:31;;;;;;;4.15;3.38;;;;;;;;;;5072637;28;20291;-88
2022/08/04 00:50:05;;;;;;;3.60;3.30;;;;;;;;;;5067547;28;20205;-88
2022/08/04 00:52:51;;;;;;;3.50;3.20;;;;;;;;;;5053528;28;20254;-88
2022/08/04 00:55:24;;;;;;;3.75;3.45;;;;;;;;;;5062762;28;20208;-88
2022/08/04 00:57:58;;;;;;;4.00;3.60;;;;;;;;;;5058828;28;20779;-87
2022/08/04 01:00:26;;;;;;;3.38;3.08;;;;;;;;;;5062569;28;20232;-87
2022/08/04 01:03:03;;;;;;;3.58;3.25;;;;;;;;;;5065762;28;20306;-87
2022/08/04 01:05:34;;;;;;;3.58;3.28;;;;;;;;;;5067662;28;20257;-88
2022/08/04 01:08:10;;;;;;;4.63;3.58;;;;;;;;;;5072253;28;20204;-88
2022/08/04 01:10:41;;;;;;;3.45;3.15;;;;;;;;;;5056391;28;20200;-87
2022/08/04 01:13:18;;;;;;;3.65;3.30;;;;;;;;;;5072100;28;20311;-87
2022/08/04 01:15:48;;;;;;;4.35;3.30;;;;;;;;;;5049993;28;20205;-87
2022/08/04 01:18:23;;;;;;;3.30;2.90;;;;;;;;;;5053328;28;20249;-87
2022/08/04 01:21:00;;;;;;;3.72;3.30;;;;;;;;;;5061285;28;20653;-88
2022/08/04 01:23:45;;;;;;;3.40;3.10;;;;;;;;;;5052673;28;20260;-87
2022/08/04 01:26:30;;;;;;;3.53;3.22;;;;;;;;;;5064791;28;20298;-87
2022/08/04 01:29:09;;;;;;;2.90;2.70;;;;;;;;;;5064240;28;20204;-88
2022/08/04 01:31:54;;;;;;;3.30;3.00;;;;;;;;;;5072069;28;20292;-88
2022/08/04 01:34:23;;;;;;;4.22;3.00;;;;;;;;;;5051035;28;20283;-87
2022/08/04 01:36:57;;;;;;;3.10;2.90;;;;;;;;;;5057459;28;20224;-88
2022/08/04 01:39:40;;;;;;;3.58;3.22;;;;;;;;;;5051318;28;20311;-87
2022/08/04 01:42:08;;;;;;;3.35;3.05;;;;;;;;;;5059125;28;20280;-87
2022/08/04 01:44:37;;;;;;;4.10;3.08;;;;;;;;;;5052311;28;20233;-87
2022/08/04 01:47:05;;;;;;;3.05;2.85;;;;;;;;;;5052415;28;20237;-87
2022/08/04 01:49:33;;;;;;;3.60;3.00;;;;;;;;;;5052398;28;20288;-87
2022/08/04 01:52:00;;;;;;;3.40;3.03;;;;;;;;;;5060023;28;20370;-87
2022/08/04 01:54:39;;;;;;;3.50;3.20;;;;;;;;;;5051642;28;20223;-87
2022/08/04 01:57:06;;;;;;;3.35;2.90;;;;;;;;;;5051658;28;20207;-87
2022/08/04 01:59:34;;;;;;;4.32;2.83;;;;;;;;;;5054666;28;20313;-87
2022/08/04 02:02:03;;;;;;;3.80;3.22;;;;;;;;;;5071395;28;20648;-87
2022/08/04 02:04:30;;;;;;;3.67;3.38;;;;;;;;;;5064965;28;20343;-87
2022/08/04 02:07:03;;;;;;;4.22;3.08;;;;;;;;;;5058777;28;20291;-87
2022/08/04 02:09:33;;;;;;;4.57;3.25;;;;;;;;;;5067833;28;20647;-87
2022/08/04 02:12:04;;;;;;;3.30;2.97;;;;;;;;;;5065162;28;20197;-86
2022/08/04 02:14:41;;;;;;;3.13;2.90;;;;;;;;;;5060612;28;20711;-87
2022/08/04 02:17:12;;;;;;;3.08;2.88;;;;;;;;;;5056761;28;20200;-87
2022/08/04 02:19:46;;;;;;;3.22;2.92;;;;;;;;;;5071151;28;20263;-87
2022/08/04 02:22:18;;;;;;;3.10;2.90;;;;;;;;;;5060422;28;20204;-87
2022/08/04 02:24:47;;;;;;;3.22;2.90;;;;;;;;;;5046298;28;20251;-87
2022/08/04 02:27:14;;;;;;;3.55;2.90;;;;;;;;;;5051901;28;20224;-87
2022/08/04 02:29:48;;;;;;;3.65;3.17;;;;;;;;;;5064324;28;20735;-88
2022/08/04 02:32:24;;;;;;;3.17;2.88;;;;;;;;;;5055318;28;20201;-88
2022/08/04 02:34:55;;;;;;;3.15;2.95;;;;;;;;;;5053992;28;20292;-88
2022/08/04 02:37:23;;;;;;;3.78;3.10;;;;;;;;;;5064706;28;20296;-87
2022/08/04 02:39:53;;;;;;;3.15;2.90;;;;;;;;;;5066401;28;20230;-88
2022/08/04 02:42:21;;;;;;;4.60;3.20;;;;;;;;;;5071040;28;20219;-87
2022/08/04 02:44:50;;;;;;;3.88;3.13;;;;;;;;;;5056975;28;20319;-87
2022/08/04 02:47:20;;;;;;;3.05;2.85;;;;;;;;;;5051841;28;20236;-87
2022/08/04 02:49:48;;;;;;;3.30;3.00;;;;;;;;;;5057382;28;20193;-88
2022/08/04 02:52:15;;;;;;;3.40;3.20;;;;;;;;;;5075007;28;20243;-88
2022/08/04 02:54:43;;;;;;;3.10;2.88;;;;;;;;;;5058260;28;20311;-87
2022/08/04 02:57:12;;;;;;;2.78;2.58;;;;;;;;;;5055153;28;20632;-86
2022/08/04 02:59:45;;;;;;;3.47;3.10;;;;;;;;;;5058560;28;20219;-87
2022/08/04 03:02:12;;;;;;;3.20;2.90;;;;;;;;;;5057381;28;20213;-87
2022/08/04 03:04:48;;;;;;;3.75;3.03;;;;;;;;;;5061453;28;20227;-87
2022/08/04 03:07:21;;;;;;;2.78;2.58;;;;;;;;;;5055559;28;20296;-87
2022/08/04 03:09:57;;;;;;;3.15;2.85;;;;;;;;;;5062118;28;20205;-87
2022/08/04 03:12:36;;;;;;;3.75;3.03;;;;;;;;;;5056097;28;20291;-87
2022/08/04 03:15:13;;;;;;;4.25;2.92;;;;;;;;;;5072766;28;20267;-88
2022/08/04 03:17:56;;;;;;;3.28;2.92;;;;;;;;;;5054689;28;20292;-87
2022/08/04 03:20:53;;;;;;;3.20;2.90;;;;;;;;;;5055259;28;20219;-87
2022/08/04 03:23:36;;;;;;;3.35;3.05;;;;;;;;;;5061187;28;20221;-86
2022/08/04 03:26:20;;;;;;;3.17;2.70;;;;;;;;;;5057134;28;20240;-87
2022/08/04 03:29:04;;;;;;;2.90;2.65;;;;;;;;;;5050730;28;20610;-86
2022/08/04 03:31:44;;;;;;;3.58;2.67;;;;;;;;;;5051419;28;20262;-86
2022/08/04 03:34:20;;;;;;;3.03;2.72;;;;;;;;;;5071771;28;20231;-87
2022/08/04 03:37:06;;;;;;;3.08;2.72;;;;;;;;;;5074505;28;20204;-87
2022/08/04 03:39:52;;;;;;;3.00;2.70;;;;;;;;;;5049380;28;20324;-87
2022/08/04 03:42:39;;;;;;;3.28;2.90;;;;;;;;;;5054537;28;20204;-87
2022/08/04 03:45:21;;;;;;;2.90;2.70;;;;;;;;;;5061115;28;20295;-87
2022/08/04 03:48:12;;;;;;;3.88;2.80;;;;;;;;;;5022844;28;20225;-88
2022/08/04 03:53:07;;;;;;;3.20;2.65;;;;;;;;;;5058803;28;20296;-87
2022/08/04 03:53:52;;;;;;;3.65;3.30;;;;;;;;;;5058317;28;20233;-87
2022/08/04 03:56:35;;;;;;;3.22;2.80;;;;;;;;;;5066401;28;20200;-87
2022/08/04 03:59:21;;;;;;;2.97;2.78;;;;;;;;;;5056454;28;20320;-87
2022/08/04 04:02:13;;;;;;;2.92;2.58;;;;;;;;;;5080123;28;20216;-87
2022/08/04 04:05:00;;;;;;;3.22;2.92;;;;;;;;;;5094123;28;20264;-87
2022/08/04 04:07:54;;;;;;;2.67;2.47;;;;;;;;;;5088435;28;20200;-87
2022/08/04 04:10:34;;;;;;;3.22;2.92;;;;;;;;;;5057259;28;20201;-88
2022/08/04 04:13:12;;;;;;;3.28;2.97;;;;;;;;;;5076206;28;20208;-87
2022/08/04 04:15:45;;;;;;;3.05;2.75;;;;;;;;;;5084659;28;20197;-87
2022/08/04 04:18:20;;;;;;;3.85;3.00;;;;;;;;;;5055905;28;20209;-86
2022/08/04 04:20:54;;;;;;;3.33;2.92;;;;;;;;;;5056337;28;20288;-86
2022/08/04 04:23:28;;;;;;;3.15;2.80;;;;;;;;;;5073665;28;20319;-87
2022/08/04 04:26:00;;;;;;;3.95;2.83;;;;;;;;;;5068365;28;20225;-86
2022/08/04 04:28:51;;;;;;;5.82;2.80;;;;;;;;;;5060642;28;20200;-86
2022/08/04 04:31:33;;;;;;;5.18;2.97;;;;;;;;;;5033593;28;20209;-87
2022/08/04 04:34:17;;;;;;;4.97;3.05;;;;;;;;;;5058100;28;20228;-87
2022/08/04 04:36:50;;;;;;;6.50;2.83;;;;;;;;;;5051459;28;20232;-87
2022/08/04 04:39:21;;;;;;;4.55;3.20;;;;;;;;;;5044851;28;20221;-87
2022/08/04 04:41:58;;;;;;;4.47;3.03;;;;;;;;;;5047638;28;20193;-86
2022/08/04 04:44:35;;;;;;;5.47;3.20;;;;;;;;;;5043654;28;20299;-87
2022/08/04 04:47:11;;;;;;;11.20;3.83;;;;;;;;;;5051142;28;20287;-87
2022/08/04 04:49:45;;;;;;;12.63;4.00;;;;;;;;;;5045300;28;20246;-87
2022/08/04 04:52:15;;;;;;;9.15;3.92;;;;;;;;;;5040778;28;20217;-87
2022/08/04 04:54:46;;;;;;;8.00;3.78;;;;;;;;;;5050150;28;20251;-87
2022/08/04 04:57:15;;;;;;;8.82;3.47;;;;;;;;;;5053094;28;20232;-87
2022/08/04 04:59:48;;;;;;;7.65;3.40;;;;;;;;;;5045969;28;20515;-87
2022/08/04 05:02:36;;;;;;;7.30;3.22;;;;;;;;;;5050819;28;20269;-87
2022/08/04 05:05:12;;;;;;;4.63;2.88;;;;;;;;;;5049577;28;20205;-87
2022/08/04 05:07:51;;;;;;;6.90;3.30;;;;;;;;;;5049789;28;20287;-87
2022/08/04 05:10:26;;;;;;;8.75;3.35;;;;;;;;;;5045584;28;20194;-87
2022/08/04 05:13:02;;;;;;;6.68;3.15;;;;;;;;;;5042715;28;20240;-86
2022/08/04 05:15:31;;;;;;;5.65;2.80;;;;;;;;;;5045001;28;20279;-86
2022/08/04 05:18:01;;;;;;;3.97;3.05;;;;;;;;;;5064597;28;20225;-87
2022/08/04 05:20:34;;;;;;;3.38;2.92;;;;;;;;;;5064564;28;20423;-88
2022/08/04 05:23:03;;;;;;;4.50;3.00;;;;;;;;;;5050594;28;20352;-87
2022/08/04 05:25:34;;;;;;;5.53;2.83;;;;;;;;;;5055387;28;20280;-88
2022/08/04 05:28:08;;;;;;;4.22;2.85;;;;;;;;;;5048756;28;20631;-87
2022/08/04 05:30:37;;;;;;;6.13;3.05;;;;;;;;;;5054205;28;20201;-88
2022/08/04 05:33:23;;;;;;;6.18;2.75;;;;;;;;;;5053148;28;20217;-87
2022/08/04 05:35:54;;;;;;;3.10;2.80;;;;;;;;;;5053157;28;20194;-87
2022/08/04 05:38:24;;;;;;;4.72;2.67;;;;;;;;;;5052129;28;20197;-86
2022/08/04 05:40:52;;;;;;;3.40;2.50;;;;;;;;;;5064350;28;20216;-87
2022/08/04 05:43:22;;;;;;;3.95;3.10;;;;;;;;;;5053925;28;20217;-87
2022/08/04 05:45:50;;;;;;;3.63;2.88;;;;;;;;;;5054064;28;20201;-87
2022/08/04 05:48:18;;;;;;;3.40;2.90;;;;;;;;;;5052763;28;20201;-86
2022/08/04 05:50:46;;;;;;;4.40;2.90;;;;;;;;;;5048123;28;21453;-84
2022/08/04 05:53:15;;;;;;;3.60;2.55;;;;;;;;;;5053311;28;20217;-85
2022/08/04 05:55:43;;;;;;;5.45;2.80;;;;;;;;;;5058730;28;20647;-84
2022/08/04 05:58:12;;;;;;;3.45;2.60;;;;;;;;;;5055335;28;20201;-85
2022/08/04 06:00:44;;;;;;;2.85;2.53;;;;;;;;;;5045251;28;20601;-85
2022/08/04 06:03:12;;;;;;;4.40;2.60;;;;;;;;;;5050402;28;20294;-86
2022/08/04 06:05:40;;;;;;;4.10;2.70;;;;;;;;;;5059640;28;20193;-85
2022/08/04 06:08:08;;;;;;;3.10;2.53;;;;;;;;;;5051722;28;20209;-86
2022/08/04 06:10:41;;;;;;;3.05;2.40;;;;;;;;;;5053701;28;20209;-86
2022/08/04 06:13:11;;;;;;;2.67;2.47;;;;;;;;;;5066773;28;20605;-85
2022/08/04 06:15:39;;;;;;;4.20;2.60;;;;;;;;;;5053614;28;20213;-85
2022/08/04 06:18:08;;;;;;;4.80;2.75;;;;;;;;;;5066736;28;20200;-84
2022/08/04 06:20:36;;;;;;;3.20;2.78;;;;;;;;;;5062888;28;20217;-85
2022/08/04 06:23:05;;;;;;;4.43;2.35;;;;;;;;;;5060853;28;20300;-85
2022/08/04 06:25:33;;;;;;;4.10;2.65;;;;;;;;;;5054616;28;20197;-85
2022/08/04 06:28:02;;;;;;;5.28;2.50;;;;;;;;;;5067210;28;20299;-84
2022/08/04 06:30:31;;;;;;;3.17;2.50;;;;;;;;;;5068081;28;20227;-85
2022/08/04 06:33:01;;;;;;;3.05;2.63;;;;;;;;;;5074909;28;20285;-86
2022/08/04 06:35:29;;;;;;;3.25;2.85;;;;;;;;;;5065731;28;20272;-85
2022/08/04 06:37:58;;;;;;;5.22;2.63;;;;;;;;;;5054743;28;20205;-85
2022/08/04 06:40:26;;;;;;;4.20;2.58;;;;;;;;;;5065350;28;20221;-85
2022/08/04 06:42:54;;;;;;;3.20;2.42;;;;;;;;;;5077252;28;20228;-85
2022/08/04 06:45:30;;;;;;;2.90;2.40;;;;;;;;;;5069570;28;20201;-85
2022/08/04 06:47:58;;;;;;;2.78;2.53;;;;;;;;;;5075313;28;20212;-85
2022/08/04 06:50:26;;;;;;;3.60;2.50;;;;;;;;;;5061711;28;20211;-85
2022/08/04 06:52:53;;;;;;;5.68;2.40;;;;;;;;;;5068758;28;20229;-85
2022/08/04 06:55:22;;;;;;;3.33;2.38;;;;;;;;;;5060321;28;20228;-85
2022/08/04 06:57:49;;;;;;;2.65;2.38;;;;;;;;;;5062185;28;20232;-85
2022/08/04 07:00:18;;;;;;;3.55;2.70;;;;;;;;;;5062373;28;20307;-85
2022/08/04 07:02:48;;;;;;;3.75;2.80;;;;;;;;;;5064976;28;20236;-86
2022/08/04 07:05:16;;;;;;;4.28;2.65;;;;;;;;;;5056184;28;20311;-85
2022/08/04 07:07:44;;;;;;;4.22;2.75;;;;;;;;;;5053289;28;20697;-85
2022/08/04 07:10:12;;;;;;;3.83;2.70;;;;;;;;;;5057136;28;20296;-85
2022/08/04 07:12:40;;;;;;;3.03;2.78;;;;;;;;;;5060556;28;20196;-83
2022/08/04 07:15:08;;;;;;;3.25;2.60;;;;;;;;;;5077090;28;20205;-84
2022/08/04 07:17:36;;;;;;;3.70;3.00;;;;;;;;;;5074245;28;20205;-84
2022/08/04 07:20:08;;;;;;;2.83;2.60;;;;;;;;;;5071112;28;20244;-84
2022/08/04 07:22:36;;;;;;;4.40;2.88;;;;;;;;;;5058309;28;20715;-85
2022/08/04 07:25:09;;;;;;;3.67;2.60;;;;;;;;;;5062769;28;20229;-82
2022/08/04 07:27:37;;;;;;;2.85;2.65;;;;;;;;;;5065654;28;20228;-84
2022/08/04 07:30:06;;;;;;;3.38;2.80;;;;;;;;;;5065920;28;20590;-83
2022/08/04 07:32:33;;;;;;;3.00;2.60;;;;;;;;;;5076050;28;20238;-83
2022/08/04 07:35:02;;;;;;;3.15;2.60;;;;;;;;;;5054987;28;20206;-84
2022/08/04 07:37:31;;;;;;;3.50;2.70;;;;;;;;;;5074996;28;20611;-86
2022/08/04 07:39:58;;;;;;;3.40;2.25;;;;;;;;;;5074692;28;20223;-85
2022/08/04 07:42:25;;;;;;;2.88;2.60;;;;;;;;;;5070639;28;20220;-84
2022/08/04 07:44:53;;;;;;;4.00;2.70;;;;;;;;;;5065223;28;20260;-84
2022/08/04 07:47:21;;;;;;;4.43;2.42;;;;;;;;;;5064575;28;20213;-88
2022/08/04 07:49:48;;;;;;;3.90;2.80;;;;;;;;;;5059885;28;20193;-88
2022/08/04 07:52:16;;;;;;;3.30;2.63;;;;;;;;;;5060618;28;20281;-86
2022/08/04 07:54:45;;;;;;;3.55;2.50;;;;;;;;;;5061540;28;20224;-88
2022/08/04 07:57:12;;;;;;;3.42;3.10;;;;;;;;;;5052129;28;20204;-87
2022/08/04 07:59:39;;;;;;;4.80;3.00;;;;;;;;;;5060150;28;20315;-90
2022/08/04 08:02:08;;;;;;;3.33;3.03;;;;;;;;;;5058958;28;20289;-90
2022/08/04 08:04:36;;;;;;;6.47;3.35;;;;;;;;;;5061835;28;20236;-90
2022/08/04 08:07:03;;;;;;;7.97;3.58;;;;;;;;;;5068824;28;20242;-89
2022/08/04 08:09:34;;;;;;;3.47;2.63;;;;;;;;;;5064539;28;20201;-90
2022/08/04 08:12:03;;;;;;;3.60;3.22;;;;;;;;;;5064285;28;20201;-90
2022/08/04 08:14:30;;;;;;;3.30;3.00;;;;;;;;;;5056904;28;20247;-90
2022/08/04 08:17:00;;;;;;;5.80;2.85;;;;;;;;;;5059827;28;20709;-89
2022/08/04 08:19:29;;;;;;;3.85;2.80;;;;;;;;;;5066040;28;20201;-89
2022/08/04 08:21:57;;;;;;;3.03;2.83;;;;;;;;;;5059201;28;20224;-89
2022/08/04 08:24:24;;;;;;;3.08;2.72;;;;;;;;;;5063469;28;20227;-91
2022/08/04 08:26:52;;;;;;;4.13;2.95;;;;;;;;;;5057107;28;20205;-91
2022/08/04 08:29:20;;;;;;;4.18;2.75;;;;;;;;;;5062458;28;20212;-89
2022/08/04 08:31:48;;;;;;;4.75;2.80;;;;;;;;;;5071745;28;20245;-90
2022/08/04 08:34:19;;;;;;;3.88;2.60;;;;;;;;;;5061763;28;20260;-91
2022/08/04 08:36:47;;;;;;;3.10;2.80;;;;;;;;;;5056375;28;20213;-90
2022/08/04 08:39:23;;;;;;;3.83;2.90;;;;;;;;;;5055980;28;20205;-91
2022/08/04 08:42:11;;;;;;;3.03;2.72;;;;;;;;;;5055417;28;20205;-90
2022/08/04 08:44:56;;;;;;;3.88;2.50;;;;;;;;;;5061731;28;20247;-90
2022/08/04 08:47:38;;;;;;;2.80;2.58;;;;;;;;;;5055909;28;20212;-89
2022/08/04 08:50:22;;;;;;;3.15;2.58;;;;;;;;;;5062256;28;20236;-90
2022/08/04 08:52:57;;;;;;;4.05;2.50;;;;;;;;;;5068700;28;20237;-91
2022/08/04 08:55:31;;;;;;;3.38;2.40;;;;;;;;;;5059744;28;20231;-91
2022/08/04 08:58:05;;;;;;;2.70;2.50;;;;;;;;;;5050722;28;20208;-88
2022/08/04 09:00:39;;;;;;;5.50;2.40;;;;;;;;;;5054966;28;20257;-88
2022/08/04 09:03:27;;;;;;;2.47;2.28;;;;;;;;;;5068327;28;20236;-88
2022/08/04 09:06:09;;;;;;;5.10;2.33;;;;;;;;;;5061714;28;20205;-88
2022/08/04 09:08:44;;;;;;;3.58;2.45;;;;;;;;;;5059825;28;20258;-87
2022/08/04 09:11:14;;;;;;;4.22;2.55;;;;;;;;;;5055668;28;20216;-88
2022/08/04 09:13:44;;;;;;;3.05;2.40;;;;;;;;;;5060858;28;20224;-88
2022/08/04 09:16:17;;;;;;;2.83;2.50;;;;;;;;;;5061702;28;20287;-88
2022/08/04 09:18:47;;;;;;;3.15;2.35;;;;;;;;;;5070163;28;20227;-87
2022/08/04 09:21:19;;;;;;;2.80;2.33;;;;;;;;;;5049131;28;20671;-88
2022/08/04 09:23:49;;;;;;;6.00;2.28;;;;;;;;;;5056613;28;20220;-88
2022/08/04 09:26:21;;;;;;;4.68;2.80;;;;;;;;;;5052211;28;20205;-87
2022/08/04 09:28:54;;;;;;;2.88;2.67;;;;;;;;;;5054337;28;20205;-87
2022/08/04 09:31:25;;;;;;;3.05;2.58;;;;;;;;;;5054072;28;20197;-87
2022/08/04 09:33:59;;;;;;;4.47;2.45;;;;;;;;;;5059210;28;20221;-87
2022/08/04 09:36:35;;;;;;;2.97;2.63;;;;;;;;;;5056538;28;20204;-87
2022/08/04 09:39:09;;;;;;;2.95;2.58;;;;;;;;;;5064510;28;20208;-89
2022/08/04 09:41:38;;;;;;;2.88;2.50;;;;;;;;;;5057043;28;20215;-87
2022/08/04 09:44:14;;;;;;;3.58;2.50;;;;;;;;;;5055708;28;20251;-88
2022/08/04 09:46:45;;;;;;;2.60;2.40;;;;;;;;;;5054788;28;20266;-88
2022/08/04 09:49:15;;;;;;;3.30;2.42;;;;;;;;;;5053310;28;20239;-87
2022/08/04 09:51:52;;;;;;;2.60;2.33;;;;;;;;;;5055188;28;20225;-87
2022/08/04 09:54:22;;;;;;;3.08;2.50;;;;;;;;;;5059586;28;20288;-87
2022/08/04 09:56:53;;;;;;;2.67;2.40;;;;;;;;;;5052249;28;20194;-87
2022/08/04 09:59:27;;;;;;;2.70;2.50;;;;;;;;;;5060624;28;20240;-87
2022/08/04 10:01:57;;;;;;;4.72;2.67;;;;;;;;;;5058132;28;20258;-86
2022/08/04 10:04:28;;;;;;;2.80;2.60;;;;;;;;;;5054069;28;20255;-87
2022/08/04 10:07:16;;;;;;;2.88;2.63;;;;;;;;;;5052984;28;20293;-87
2022/08/04 10:09:58;;;;;;;2.92;2.67;;;;;;;;;;5049755;28;20235;-86
2022/08/04 10:12:39;;;;;;;4.43;3.38;;;;;;;;;;5050888;28;20284;-85
2022/08/04 10:15:11;;;;;;;3.53;3.10;;;;;;;;;;5068241;28;20196;-87
2022/08/04 10:17:46;;;;;;;3.20;2.90;;;;;;;;;;5052737;28;20197;-87
2022/08/04 10:20:19;;;;;;;2.65;2.45;;;;;;;;;;5043634;28;20204;-86
2022/08/04 10:22:57;;;;;;;3.20;2.90;;;;;;;;;;5053168;28;20224;-86
2022/08/04 10:25:31;;;;;;;3.28;2.92;;;;;;;;;;5046784;28;20201;-86
2022/08/04 10:28:00;;;;;;;3.85;2.90;;;;;;;;;;5046575;28;20217;-86
2022/08/04 10:30:32;;;;;;;3.00;2.80;;;;;;;;;;5046826;28;20208;-87
2022/08/04 10:33:05;;;;;;;3.25;2.95;;;;;;;;;;5052890;28;20275;-87
2022/08/04 10:35:35;;;;;;;3.00;2.80;;;;;;;;;;5055166;28;20201;-87
2022/08/04 10:38:09;;;;;;;2.80;2.60;;;;;;;;;;5062742;28;20204;-87
2022/08/04 10:40:44;;;;;;;2.83;2.42;;;;;;;;;;5049146;28;20217;-86
2022/08/04 10:43:16;;;;;;;2.85;2.65;;;;;;;;;;5045329;28;20277;-87
2022/08/04 10:45:45;;;;;;;2.78;2.53;;;;;;;;;;5052106;28;20214;-86
2022/08/04 10:48:16;;;;;;;2.85;2.50;;;;;;;;;;5052138;28;20201;-87
2022/08/04 10:50:48;;;;;;;2.83;2.60;;;;;;;;;;5050756;28;20224;-87
2022/08/04 10:53:19;;;;;;;2.47;2.30;;;;;;;;;;5063824;28;20240;-86
2022/08/04 10:55:49;;;;;;;2.70;2.50;;;;;;;;;;5064691;28;20208;-87
2022/08/04 10:58:19;;;;;;;2.88;2.60;;;;;;;;;;5049022;28;20229;-86
2022/08/04 11:00:48;;;;;;;2.88;2.60;;;;;;;;;;5046148;28;20223;-86
2022/08/04 11:03:20;;;;;;;2.88;2.67;;;;;;;;;;5050252;28;20225;-87
2022/08/04 11:05:49;;;;;;;2.65;2.45;;;;;;;;;;5056265;28;20197;-87
2022/08/04 11:08:21;;;;;;;2.75;2.55;;;;;;;;;;5059273;28;20212;-86
2022/08/04 11:10:51;;;;;;;2.50;2.30;;;;;;;;;;5060531;28;20263;-86
2022/08/04 11:13:18;;;;;;;2.55;2.35;;;;;;;;;;5051236;28;20247;-87
2022/08/04 11:15:48;;;;;;;2.75;2.55;;;;;;;;;;5050076;28;20206;-87
2022/08/04 11:18:17;;;;;;;2.80;2.60;;;;;;;;;;5048479;28;20599;-87
2022/08/04 11:20:50;;;;;;;2.83;2.63;;;;;;;;;;5049341;28;20236;-87
2022/08/04 11:23:21;;;;;;;2.80;2.60;;;;;;;;;;5051894;28;20252;-86
2022/08/04 11:25:51;;;;;;;2.78;2.55;;;;;;;;;;5049136;28;20359;-87
2022/08/04 11:28:22;;;;;;;3.45;2.70;;;;;;;;;;5051114;28;20254;-88
2022/08/04 11:30:53;;;;;;;2.60;2.40;;;;;;;;;;5055359;28;20266;-87
2022/08/04 11:33:27;;;;;;;2.85;2.42;;;;;;;;;;5074212;28;20250;-86
2022/08/04 11:35:58;;;;;;;2.40;2.20;;;;;;;;;;5051729;28;20255;-88
2022/08/04 11:38:28;;;;;;;2.67;2.47;;;;;;;;;;5052808;28;20201;-86
2022/08/04 11:40:59;;;;;;;2.75;2.55;;;;;;;;;;5050562;28;20241;-87
2022/08/04 11:46:17;;;;;;;2.50;2.30;;;;;;;;;;5046178;28;20288;-86
2022/08/04 11:49:00;;;;;;;2.75;2.25;;;;;;;;;;5050809;28;20203;-87
2022/08/04 11:52:02;;;;;;;2.67;2.40;;;;;;;;;;5056239;28;20300;-87
2022/08/04 11:57:21;;;;;;;2.95;2.65;;;;;;;;;;4974492;28;20212;-87
2022/08/04 11:59:50;;;;;;;2.55;2.35;;;;;;;;;;4973167;28;20212;-88
2022/08/04 12:02:36;;;;;;;2.78;2.50;;;;;;;;;;4967475;28;20244;-87
2022/08/04 12:05:27;;;;;;;2.50;2.30;;;;;;;;;;4948290;28;20208;-87
2022/08/04 12:08:03;;;;;;;2.53;2.33;;;;;;;;;;5059127;22;20221;-85
2022/08/04 12:10:52;;;;;;;2.50;2.30;;;;;;;;;;5043631;28;20647;-84
2022/08/04 12:22:32;;;;;;;2.58;2.38;;;;;;;;;;5007415;28;20234;-85
2022/08/04 12:28:29;;;;;;;2.50;2.40;;;;;;;;;;5049334;28;20229;-85
2022/08/04 12:31:22;;;;;;;3.78;2.85;;;;;;;;;;5048396;28;20582;-85
2022/08/04 12:34:04;;;;;;;2.80;2.60;;;;;;;;;;5053511;28;20205;-85
2022/08/04 12:36:44;;;;;;;2.65;2.45;;;;;;;;;;5048259;28;20217;-84
2022/08/04 12:39:46;;;;;;;2.75;2.55;;;;;;;;;;5049073;28;20212;-85
2022/08/04 12:54:57;;;;;;;2.70;2.50;;;;;;;;;;4875710;29;20207;-86
2022/08/04 12:57:25;;;;;;;2.63;2.42;;;;;;;;;;4874484;29;20371;-84
2022/08/04 15:32:48;;;;;;;2.75;2.55;;;;;;;;;;5050100;28;20303;-85
2022/08/04 15:35:24;;;;;;;3.00;2.80;;;;;;;;;;5044724;28;20205;-85
2022/08/04 15:38:00;;;;;;;2.65;2.45;;;;;;;;;;5046101;28;20228;-85
2022/08/04 15:40:33;;;;;;;2.55;2.45;;;;;;;;;;5039910;28;20229;-85
2022/08/04 15:43:07;;;;;;;2.75;2.60;;;;;;;;;;5037298;28;20673;-85
2022/08/04 15:45:50;;;;;;;3.00;2.80;;;;;;;;;;5041831;28;20268;-85
2022/08/04 15:48:27;;;;;;;2.78;2.50;;;;;;;;;;5038162;28;20218;-85
2022/08/04 15:51:15;;;;;;;3.20;2.80;;;;;;;;;;5044844;28;20293;-86
2022/08/04 15:53:57;;;;;;;2.63;2.40;;;;;;;;;;5034506;28;20194;-85
2022/08/04 15:56:45;;;;;;;2.60;2.40;;;;;;;;;;5023268;28;20276;-85
2022/08/04 15:59:17;;;;;;;2.85;2.53;;;;;;;;;;5035003;28;20227;-85
2022/08/04 16:02:14;;;;;;;2.80;2.60;;;;;;;;;;5041102;28;20217;-85
2022/08/04 16:04:43;;;;;;;2.85;2.65;;;;;;;;;;5040387;28;20194;-84
2022/08/04 16:07:21;;;;;;;3.38;2.60;;;;;;;;;;5035508;28;20249;-84
2022/08/04 16:09:54;;;;;;;4.90;2.42;;;;;;;;;;5046811;28;20228;-84
2022/08/04 16:12:45;;;;;;;2.78;2.60;;;;;;;;;;5042143;28;20205;-84
2022/08/04 16:15:32;;;;;;;2.60;2.40;;;;;;;;;;5038536;28;20202;-84
2022/08/04 16:21:06;;;;;;;2.75;2.55;;;;;;;;;;5014150;28;20206;-84
2022/08/04 16:24:02;;;;;;;2.75;2.55;;;;;;;;;;5037495;28;20220;-85
2022/08/04 16:26:47;;;;;;;2.47;2.30;;;;;;;;;;5037667;28;20309;-84
2022/08/04 16:29:30;;;;;;;2.80;2.60;;;;;;;;;;5043800;28;20236;-85
2022/08/04 16:35:27;;;;;;;2.92;2.72;;;;;;;;;;5031010;28;20208;-84
2022/08/04 16:38:16;;;;;;;2.95;2.55;;;;;;;;;;5041534;28;20248;-84
2022/08/04 16:43:45;;;;;;;2.75;2.55;;;;;;;;;;5049199;28;20241;-84
2022/08/04 16:49:47;;;;;;;2.50;2.40;;;;;;;;;;5023682;28;20292;-86
2022/08/04 17:01:09;;;;;;;2.80;2.55;;;;;;;;;;5047631;28;20232;-84
2022/08/04 17:06:48;;;;;;;2.90;2.70;;;;;;;;;;5033841;28;20229;-85
2022/08/04 17:09:22;;;;;;;3.50;2.60;;;;;;;;;;5054163;28;20201;-86
2022/08/04 17:14:53;;;;;;;3.20;2.90;;;;;;;;;;5044670;28;20208;-86
2022/08/04 17:20:14;;;;;;;3.80;3.00;;;;;;;;;;5044033;28;20233;-84
2022/08/04 17:22:52;;;;;;;3.03;2.70;;;;;;;;;;5049318;28;20221;-87
2022/08/04 17:31:32;;;;;;;3.47;3.10;;;;;;;;;;5032710;28;20198;-86
2022/08/04 17:34:20;;;;;;;2.97;2.78;;;;;;;;;;5028254;28;20214;-86
2022/08/04 17:59:53;;;;;;;3.03;2.80;;;;;;;;;;5056101;22;20221;-85
2022/08/04 18:02:25;;;;;;;3.33;3.03;;;;;;;;;;5049600;28;20293;-87
2022/08/04 18:05:04;;;;;;;3.28;2.72;;;;;;;;;;5048899;28;20579;-87
2022/08/04 18:07:36;;;;;;;4.05;3.10;;;;;;;;;;5079512;22;20224;-86
2022/08/04 18:10:03;;;;;;;3.13;2.80;;;;;;;;;;5050640;28;20239;-88
2022/08/04 18:12:34;;;;;;;2.60;2.40;;;;;;;;;;5049499;28;20201;-88
2022/08/04 18:15:09;;;;;;;2.85;2.65;;;;;;;;;;5051872;28;20216;-88
2022/08/04 18:17:49;;;;;;;3.22;2.72;;;;;;;;;;5048284;28;20298;-87
2022/08/04 18:20:34;;;;;;;3.10;2.90;;;;;;;;;;5025281;28;20202;-87
2022/08/04 18:23:13;;;;;;;3.72;2.92;;;;;;;;;;5017950;28;20223;-87
2022/08/04 18:25:54;;;;;;;3.05;2.83;;;;;;;;;;5046392;28;20225;-88
2022/08/04 18:28:42;;;;;;;3.30;3.00;;;;;;;;;;5031054;28;20225;-91
2022/08/04 18:31:15;;;;;;;3.70;3.40;;;;;;;;;;5035950;28;20210;-90
2022/08/04 18:33:59;;;;;;;3.13;2.92;;;;;;;;;;5040638;28;20655;-89
2022/08/04 18:36:33;;;;;;;5.07;3.40;;;;;;;;;;5033534;28;20213;-90
2022/08/04 18:39:11;;;;;;;7.05;3.60;;;;;;;;;;5039464;28;20224;-91
2022/08/04 18:41:46;;;;;;;4.80;3.30;;;;;;;;;;5031778;28;20280;-89
2022/08/04 18:44:24;;;;;;;3.58;3.10;;;;;;;;;;5033789;28;20217;-91
2022/08/04 18:47:16;;;;;;;5.22;3.35;;;;;;;;;;5033053;28;20206;-91
2022/08/04 18:49:48;;;;;;;3.85;3.13;;;;;;;;;;5031400;28;20193;-90
2022/08/04 18:52:22;;;;;;;3.88;3.13;;;;;;;;;;5036186;28;20705;-91
2022/08/04 18:54:55;;;;;;;3.70;3.40;;;;;;;;;;5032693;28;20233;-90
2022/08/04 18:57:23;;;;;;;3.38;3.08;;;;;;;;;;5025746;28;20745;-90
2022/08/04 19:00:02;;;;;;;3.60;3.20;;;;;;;;;;5034852;28;20198;-87
2022/08/04 19:02:31;;;;;;;3.45;3.13;;;;;;;;;;5029525;28;20308;-90
2022/08/04 19:05:17;;;;;;;4.43;3.40;;;;;;;;;;5042587;28;20265;-88
2022/08/04 19:07:45;;;;;;;3.38;3.00;;;;;;;;;;5044886;28;20237;-88
2022/08/04 19:10:18;;;;;;;3.53;3.08;;;;;;;;;;5028902;28;20679;-87
2022/08/04 19:12:47;;;;;;;3.20;2.90;;;;;;;;;;5030055;28;20202;-87
2022/08/04 19:15:15;;;;;;;2.90;2.70;;;;;;;;;;5027382;28;20263;-87
2022/08/04 19:17:45;;;;;;;3.42;3.05;;;;;;;;;;5031604;28;20217;-86
2022/08/04 19:20:16;;;;;;;3.20;2.95;;;;;;;;;;5032329;28;20210;-89
2022/08/04 19:22:47;;;;;;;3.47;3.17;;;;;;;;;;5031417;28;20242;-89
2022/08/04 19:25:17;;;;;;;3.50;3.30;;;;;;;;;;5038713;28;20205;-90
2022/08/04 19:27:50;;;;;;;3.40;3.20;;;;;;;;;;5031413;28;20218;-90